createdAt,value
2022-12-23T01:43:50.118Z,0.76
2022-12-23T01:46:17.249Z,0.92
2022-12-23T01:48:45.363Z,0.98
2022-12-23T01:51:14.912Z,1.03
2022-12-23T01:53:47.089Z,1.08
2022-12-23T01:56:17.044Z,1.11
2022-12-23T01:58:46.582Z,1.14
2022-12-23T02:01:32.253Z,1.15
2022-12-23T02:04:00.934Z,1.17
2022-12-23T02:06:48.118Z,1.21
2022-12-23T02:09:26.179Z,1.23
2022-12-23T02:12:21.589Z,1.25
2022-12-23T02:15:32.045Z,1.24
2022-12-23T02:18:15.939Z,1.28
2022-12-23T02:21:11.269Z,1.28
2022-12-23T02:23:53.173Z,1.28
2022-12-23T02:27:11.337Z,1.31
2022-12-23T02:29:56.827Z,1.34
2022-12-23T02:32:29.078Z,1.32
2022-12-23T02:34:56.967Z,1.37
2022-12-23T02:37:54.364Z,1.35
2022-12-23T02:40:30.025Z,1.33
2022-12-23T02:43:01.459Z,1.31
2022-12-23T02:45:28.146Z,1.31
2022-12-23T02:47:56.657Z,1.29
2022-12-23T02:50:31.938Z,1.26
2022-12-23T02:52:59.956Z,1.24
2022-12-23T02:55:29.062Z,1.24
2022-12-23T02:57:55.833Z,1.25
2022-12-23T03:00:23.218Z,1.25
2022-12-23T03:02:50.054Z,1.23
2022-12-23T03:05:24.044Z,1.22
2022-12-23T03:07:50.735Z,1.22
2022-12-23T03:10:36.244Z,1.22
2022-12-23T03:13:15.243Z,1.18
2022-12-23T03:15:56.409Z,1.16
2022-12-23T03:18:29.373Z,1.15
2022-12-23T03:21:14.395Z,1.15
2022-12-23T03:23:55.903Z,1.17
2022-12-23T03:26:32.963Z,1.17
2022-12-23T03:29:13.819Z,1.17
2022-12-23T03:31:40.631Z,1.16
2022-12-23T03:34:09.179Z,1.15
2022-12-23T03:36:42.125Z,1.13
2022-12-23T03:39:10.843Z,1.09
2022-12-23T03:41:40.999Z,1.12
2022-12-23T03:44:13.687Z,1.12
2022-12-23T03:46:42.943Z,1.12
2022-12-23T03:49:13.517Z,1.10
2022-12-23T03:51:53.131Z,1.09
2022-12-23T03:54:22.649Z,1.09
2022-12-23T03:57:01.623Z,1.07
2022-12-23T03:59:32.925Z,1.06
2022-12-23T04:02:16.595Z,1.01
2022-12-23T04:04:52.132Z,1.01
2022-12-23T04:07:30.854Z,0.99
2022-12-23T04:09:57.573Z,0.96
2022-12-23T04:12:24.705Z,0.95
2022-12-23T04:14:51.377Z,0.94
2022-12-23T04:17:18.109Z,0.91
2022-12-23T04:19:47.786Z,0.93
2022-12-23T04:22:15.134Z,0.95
2022-12-23T04:24:41.941Z,0.95
2022-12-23T04:27:09.723Z,0.98
2022-12-23T04:29:36.386Z,0.99
2022-12-23T04:32:03.103Z,0.99
2022-12-23T04:34:29.829Z,0.98
2022-12-23T04:36:56.567Z,0.93
2022-12-23T04:39:23.317Z,0.90
2022-12-23T04:41:50.020Z,0.89
2022-12-23T04:44:16.736Z,0.88
2022-12-23T04:46:43.553Z,0.88
2022-12-23T04:49:10.193Z,0.87
2022-12-23T04:51:36.873Z,0.86
2022-12-23T04:54:03.746Z,0.86
2022-12-23T04:56:30.398Z,0.86
2022-12-23T04:58:57.080Z,0.86
2022-12-23T05:01:23.809Z,0.86
2022-12-23T05:03:50.505Z,0.84
2022-12-23T05:06:17.185Z,0.82
2022-12-23T05:08:43.873Z,0.80
2022-12-23T19:59:54.409Z,1.29
2022-12-23T20:27:38.101Z,2.12
2022-12-23T20:30:05.606Z,2.25
2022-12-23T20:32:32.380Z,2.22
2022-12-23T20:34:59.145Z,2.20
2022-12-23T20:37:25.788Z,2.17
2022-12-23T20:39:53.624Z,2.18
2022-12-23T21:00:46.361Z,2.61
2022-12-23T21:03:13.125Z,2.68
2022-12-23T21:05:39.980Z,2.67
2022-12-23T21:08:06.785Z,2.61
2022-12-23T21:10:35.726Z,2.57
2022-12-23T21:13:03.553Z,2.54
2022-12-23T21:15:33.340Z,2.51
2022-12-23T21:18:00.157Z,2.49
2022-12-23T21:20:26.844Z,2.48
2022-12-23T21:22:53.608Z,2.47
2022-12-23T21:25:20.361Z,2.44
2022-12-23T21:27:47.110Z,2.43
2022-12-23T21:30:14.082Z,2.41
2022-12-23T21:32:40.881Z,2.38
2022-12-23T21:35:07.765Z,2.37
2022-12-23T21:37:34.466Z,2.36
2022-12-23T21:40:01.270Z,2.35
2022-12-23T21:42:27.944Z,2.33
2022-12-23T21:44:54.646Z,2.33
2022-12-23T21:47:21.375Z,2.31
2022-12-23T21:49:48.124Z,2.29
2022-12-23T21:52:14.827Z,2.27
2022-12-23T21:54:41.575Z,2.23
2022-12-23T21:57:08.291Z,2.19
2022-12-23T21:59:35.625Z,2.16
2022-12-23T22:02:02.600Z,2.14
2022-12-23T22:04:29.377Z,2.13
2022-12-23T22:06:56.119Z,2.13
2022-12-23T22:09:22.806Z,2.14
2022-12-23T22:11:49.564Z,2.16
2022-12-23T22:14:17.716Z,2.17
2022-12-23T22:16:44.534Z,2.19
2022-12-23T22:19:11.319Z,2.19
2022-12-23T22:21:39.615Z,2.18
2022-12-23T22:24:06.728Z,2.18
2022-12-23T22:26:33.521Z,2.18
2022-12-23T22:29:01.654Z,2.17
2022-12-23T22:31:38.542Z,2.15
2022-12-23T22:34:05.431Z,2.12
2022-12-23T22:36:32.190Z,2.11
2022-12-23T22:38:59.821Z,2.11
2022-12-23T22:41:27.966Z,2.09
2022-12-23T22:43:55.069Z,2.09
2022-12-23T22:46:22.093Z,2.08
2022-12-23T22:48:48.914Z,2.08
2022-12-23T22:51:17.422Z,2.09
2022-12-23T22:53:44.174Z,2.11
2022-12-23T22:56:12.086Z,2.12
2022-12-23T22:58:38.907Z,2.13
2022-12-23T23:01:05.691Z,2.15
2022-12-23T23:03:32.588Z,2.17
2022-12-23T23:06:06.877Z,2.19
2022-12-23T23:08:33.988Z,2.20
2022-12-23T23:11:01.876Z,2.21
2022-12-23T23:13:30.307Z,2.23
2022-12-23T23:15:57.500Z,2.25
2022-12-23T23:18:24.466Z,2.26
2022-12-23T23:20:51.173Z,2.28
2022-12-23T23:23:17.841Z,2.30
2022-12-23T23:25:45.117Z,2.29
2022-12-23T23:28:11.891Z,2.28
2022-12-23T23:30:39.074Z,2.28
2022-12-23T23:33:06.724Z,2.27
2022-12-23T23:35:33.528Z,2.24
2022-12-23T23:38:00.219Z,2.22
2022-12-23T23:40:27.203Z,2.21
2022-12-23T23:42:54.132Z,2.20
2022-12-23T23:45:20.810Z,2.20
2022-12-23T23:47:47.483Z,2.21
2022-12-23T23:50:14.145Z,2.23
2022-12-23T23:52:40.839Z,2.25
2022-12-23T23:55:08.073Z,2.25
2022-12-23T23:57:34.792Z,2.24
